sensor_id;sensor_type;location;lat;lon;timestamp;P1;durP1;ratioP1;P2;durP2;ratioP2
71610;SDS011;59459;51.172;6.682;2022-10-31T00:02:21;26.13;;;8.03;;
71610;SDS011;59459;51.172;6.682;2022-10-31T00:04:47;20.33;;;7.30;;
71610;SDS011;59459;51.172;6.682;2022-10-31T00:07:12;17.80;;;7.20;;
71610;SDS011;59459;51.172;6.682;2022-10-31T00:09:37;17.53;;;7.43;;
71610;SDS011;59459;51.172;6.682;2022-10-31T00:12:02;15.03;;;6.73;;
71610;SDS011;59459;51.172;6.682;2022-10-31T00:14:27;18.97;;;7.03;;
71610;SDS011;59459;51.172;6.682;2022-10-31T00:16:53;17.93;;;7.00;;
71610;SDS011;59459;51.172;6.682;2022-10-31T00:19:18;15.87;;;6.93;;
71610;SDS011;59459;51.172;6.682;2022-10-31T00:21:43;16.73;;;7.03;;
71610;SDS011;59459;51.172;6.682;2022-10-31T00:24:08;16.40;;;7.10;;
71610;SDS011;59459;51.172;6.682;2022-10-31T00:26:34;17.73;;;7.27;;
71610;SDS011;59459;51.172;6.682;2022-10-31T00:28:59;19.07;;;7.47;;
71610;SDS011;59459;51.172;6.682;2022-10-31T00:31:24;16.03;;;7.07;;
71610;SDS011;59459;51.172;6.682;2022-10-31T00:33:50;17.60;;;8.00;;
71610;SDS011;59459;51.172;6.682;2022-10-31T00:36:16;18.97;;;6.43;;
71610;SDS011;59459;51.172;6.682;2022-10-31T00:38:42;17.17;;;6.90;;
71610;SDS011;59459;51.172;6.682;2022-10-31T00:41:07;20.08;;;7.65;;
71610;SDS011;59459;51.172;6.682;2022-10-31T00:43:33;15.90;;;7.13;;
71610;SDS011;59459;51.172;6.682;2022-10-31T00:45:58;15.30;;;6.97;;
71610;SDS011;59459;51.172;6.682;2022-10-31T00:48:23;24.23;;;9.80;;
71610;SDS011;59459;51.172;6.682;2022-10-31T00:50:48;22.30;;;10.07;;
71610;SDS011;59459;51.172;6.682;2022-10-31T00:53:14;18.60;;;8.53;;
71610;SDS011;59459;51.172;6.682;2022-10-31T00:55:39;25.20;;;12.33;;
71610;SDS011;59459;51.172;6.682;2022-10-31T00:58:04;26.50;;;12.60;;
71610;SDS011;59459;51.172;6.682;2022-10-31T01:00:29;21.47;;;10.13;;
71610;SDS011;59459;51.172;6.682;2022-10-31T01:02:54;30.13;;;10.80;;
71610;SDS011;59459;51.172;6.682;2022-10-31T01:05:20;24.13;;;10.50;;
71610;SDS011;59459;51.172;6.682;2022-10-31T01:07:45;21.87;;;8.30;;
71610;SDS011;59459;51.172;6.682;2022-10-31T01:10:10;24.02;;;8.82;;
71610;SDS011;59459;51.172;6.682;2022-10-31T01:12:36;17.27;;;8.23;;
71610;SDS011;59459;51.172;6.682;2022-10-31T01:15:02;17.90;;;8.30;;
71610;SDS011;59459;51.172;6.682;2022-10-31T01:17:27;17.43;;;8.57;;
71610;SDS011;59459;51.172;6.682;2022-10-31T01:19:52;19.07;;;8.40;;
71610;SDS011;59459;51.172;6.682;2022-10-31T01:22:18;16.30;;;8.27;;
71610;SDS011;59459;51.172;6.682;2022-10-31T01:24:43;20.83;;;8.30;;
71610;SDS011;59459;51.172;6.682;2022-10-31T01:27:08;17.40;;;7.60;;
71610;SDS011;59459;51.172;6.682;2022-10-31T01:29:33;23.37;;;8.30;;
71610;SDS011;59459;51.172;6.682;2022-10-31T01:31:58;21.20;;;7.47;;
71610;SDS011;59459;51.172;6.682;2022-10-31T01:34:24;21.17;;;7.73;;
71610;SDS011;59459;51.172;6.682;2022-10-31T01:36:49;14.93;;;6.90;;
71610;SDS011;59459;51.172;6.682;2022-10-31T01:39:16;17.20;;;8.50;;
71610;SDS011;59459;51.172;6.682;2022-10-31T01:41:43;15.50;;;7.47;;
71610;SDS011;59459;51.172;6.682;2022-10-31T01:49:11;19.13;;;7.88;;
71610;SDS011;59459;51.172;6.682;2022-10-31T01:51:39;20.02;;;7.65;;
71610;SDS011;59459;51.172;6.682;2022-10-31T01:54:07;17.50;;;8.23;;
71610;SDS011;59459;51.172;6.682;2022-10-31T01:56:34;14.00;;;7.23;;
71610;SDS011;59459;51.172;6.682;2022-10-31T01:59:02;16.48;;;7.20;;
71610;SDS011;59459;51.172;6.682;2022-10-31T02:01:30;18.27;;;8.05;;
71610;SDS011;59459;51.172;6.682;2022-10-31T02:03:55;18.33;;;7.77;;
71610;SDS011;59459;51.172;6.682;2022-10-31T02:08:52;20.83;;;7.77;;
71610;SDS011;59459;51.172;6.682;2022-10-31T02:11:17;15.82;;;7.72;;
71610;SDS011;59459;51.172;6.682;2022-10-31T02:13:42;17.20;;;7.17;;
71610;SDS011;59459;51.172;6.682;2022-10-31T02:16:08;15.87;;;7.17;;
71610;SDS011;59459;51.172;6.682;2022-10-31T02:18:34;16.17;;;6.70;;
71610;SDS011;59459;51.172;6.682;2022-10-31T02:31:38;13.65;;;6.93;;
71610;SDS011;59459;51.172;6.682;2022-10-31T02:34:10;15.23;;;6.78;;
71610;SDS011;59459;51.172;6.682;2022-10-31T02:41:39;15.77;;;6.90;;
71610;SDS011;59459;51.172;6.682;2022-10-31T02:46:44;16.60;;;7.05;;
71610;SDS011;59459;51.172;6.682;2022-10-31T02:49:22;17.02;;;7.13;;
71610;SDS011;59459;51.172;6.682;2022-10-31T02:51:48;15.25;;;7.38;;
71610;SDS011;59459;51.172;6.682;2022-10-31T02:54:19;16.63;;;7.37;;
71610;SDS011;59459;51.172;6.682;2022-10-31T02:56:46;17.53;;;7.33;;
71610;SDS011;59459;51.172;6.682;2022-10-31T02:59:12;20.48;;;7.10;;
71610;SDS011;59459;51.172;6.682;2022-10-31T03:09:43;19.20;;;6.63;;
71610;SDS011;59459;51.172;6.682;2022-10-31T03:12:21;19.20;;;7.22;;
71610;SDS011;59459;51.172;6.682;2022-10-31T03:15:53;14.57;;;6.60;;
71610;SDS011;59459;51.172;6.682;2022-10-31T03:20:11;14.90;;;7.00;;
71610;SDS011;59459;51.172;6.682;2022-10-31T03:22:36;20.13;;;7.67;;
71610;SDS011;59459;51.172;6.682;2022-10-31T03:25:03;15.85;;;6.85;;
71610;SDS011;59459;51.172;6.682;2022-10-31T03:27:30;13.82;;;6.70;;
71610;SDS011;59459;51.172;6.682;2022-10-31T03:29:57;15.25;;;6.82;;
71610;SDS011;59459;51.172;6.682;2022-10-31T03:32:27;15.60;;;5.50;;
71610;SDS011;59459;51.172;6.682;2022-10-31T03:34:55;15.88;;;6.45;;
71610;SDS011;59459;51.172;6.682;2022-10-31T03:37:21;15.02;;;6.13;;
71610;SDS011;59459;51.172;6.682;2022-10-31T03:39:47;16.43;;;6.97;;
71610;SDS011;59459;51.172;6.682;2022-10-31T03:42:14;13.88;;;6.45;;
71610;SDS011;59459;51.172;6.682;2022-10-31T03:44:41;18.17;;;6.80;;
71610;SDS011;59459;51.172;6.682;2022-10-31T03:47:08;20.80;;;6.72;;
71610;SDS011;59459;51.172;6.682;2022-10-31T03:49:33;18.27;;;6.07;;
71610;SDS011;59459;51.172;6.682;2022-10-31T03:54:37;16.20;;;6.53;;
71610;SDS011;59459;51.172;6.682;2022-10-31T03:57:11;15.57;;;6.03;;
71610;SDS011;59459;51.172;6.682;2022-10-31T03:59:40;12.65;;;6.18;;
71610;SDS011;59459;51.172;6.682;2022-10-31T04:02:07;13.77;;;5.85;;
71610;SDS011;59459;51.172;6.682;2022-10-31T04:04:35;15.50;;;6.97;;
71610;SDS011;59459;51.172;6.682;2022-10-31T04:07:01;14.03;;;6.20;;
71610;SDS011;59459;51.172;6.682;2022-10-31T04:09:28;13.88;;;6.55;;
71610;SDS011;59459;51.172;6.682;2022-10-31T04:11:55;17.90;;;6.93;;
71610;SDS011;59459;51.172;6.682;2022-10-31T04:14:22;12.63;;;5.55;;
71610;SDS011;59459;51.172;6.682;2022-10-31T04:16:48;15.98;;;6.18;;
71610;SDS011;59459;51.172;6.682;2022-10-31T04:19:14;13.87;;;6.40;;
71610;SDS011;59459;51.172;6.682;2022-10-31T04:21:39;13.33;;;6.27;;
71610;SDS011;59459;51.172;6.682;2022-10-31T04:24:04;17.17;;;6.63;;
71610;SDS011;59459;51.172;6.682;2022-10-31T04:26:30;14.30;;;6.60;;
71610;SDS011;59459;51.172;6.682;2022-10-31T04:28:55;15.87;;;6.53;;
71610;SDS011;59459;51.172;6.682;2022-10-31T04:31:20;13.20;;;5.70;;
71610;SDS011;59459;51.172;6.682;2022-10-31T04:33:45;17.33;;;6.70;;
71610;SDS011;59459;51.172;6.682;2022-10-31T04:36:11;16.60;;;6.07;;
71610;SDS011;59459;51.172;6.682;2022-10-31T04:38:36;15.73;;;6.70;;
71610;SDS011;59459;51.172;6.682;2022-10-31T04:41:01;15.07;;;6.67;;
71610;SDS011;59459;51.172;6.682;2022-10-31T04:43:26;15.07;;;6.13;;
71610;SDS011;59459;51.172;6.682;2022-10-31T04:45:52;14.57;;;6.13;;
71610;SDS011;59459;51.172;6.682;2022-10-31T04:48:17;15.73;;;6.10;;
71610;SDS011;59459;51.172;6.682;2022-10-31T04:50:42;18.70;;;6.80;;
71610;SDS011;59459;51.172;6.682;2022-10-31T04:53:07;14.57;;;6.33;;
71610;SDS011;59459;51.172;6.682;2022-10-31T04:55:33;16.27;;;6.77;;
71610;SDS011;59459;51.172;6.682;2022-10-31T04:57:58;15.83;;;6.33;;
71610;SDS011;59459;51.172;6.682;2022-10-31T05:00:24;16.37;;;6.37;;
71610;SDS011;59459;51.172;6.682;2022-10-31T05:02:53;16.23;;;6.90;;
71610;SDS011;59459;51.172;6.682;2022-10-31T05:05:19;14.15;;;6.55;;
71610;SDS011;59459;51.172;6.682;2022-10-31T05:07:45;14.63;;;7.23;;
71610;SDS011;59459;51.172;6.682;2022-10-31T05:10:11;16.63;;;6.93;;
71610;SDS011;59459;51.172;6.682;2022-10-31T05:12:37;16.55;;;6.40;;
71610;SDS011;59459;51.172;6.682;2022-10-31T05:15:03;16.03;;;6.67;;
71610;SDS011;59459;51.172;6.682;2022-10-31T05:17:28;12.98;;;6.43;;
71610;SDS011;59459;51.172;6.682;2022-10-31T05:19:55;14.77;;;6.88;;
71610;SDS011;59459;51.172;6.682;2022-10-31T05:22:20;15.97;;;6.40;;
71610;SDS011;59459;51.172;6.682;2022-10-31T05:24:45;14.37;;;6.23;;
71610;SDS011;59459;51.172;6.682;2022-10-31T05:27:10;19.27;;;6.83;;
71610;SDS011;59459;51.172;6.682;2022-10-31T05:29:36;14.70;;;6.33;;
71610;SDS011;59459;51.172;6.682;2022-10-31T05:32:01;21.00;;;6.97;;
71610;SDS011;59459;51.172;6.682;2022-10-31T05:34:26;18.50;;;6.33;;
71610;SDS011;59459;51.172;6.682;2022-10-31T05:36:51;14.77;;;6.53;;
71610;SDS011;59459;51.172;6.682;2022-10-31T05:39:17;14.03;;;6.30;;
71610;SDS011;59459;51.172;6.682;2022-10-31T05:41:42;15.50;;;6.47;;
71610;SDS011;59459;51.172;6.682;2022-10-31T05:44:07;18.40;;;7.57;;
71610;SDS011;59459;51.172;6.682;2022-10-31T05:46:32;17.60;;;6.73;;
71610;SDS011;59459;51.172;6.682;2022-10-31T05:48:58;15.17;;;6.50;;
71610;SDS011;59459;51.172;6.682;2022-10-31T05:51:23;16.23;;;7.30;;
71610;SDS011;59459;51.172;6.682;2022-10-31T05:53:48;14.67;;;6.40;;
71610;SDS011;59459;51.172;6.682;2022-10-31T05:56:13;14.90;;;7.07;;
71610;SDS011;59459;51.172;6.682;2022-10-31T05:58:39;13.93;;;7.33;;
71610;SDS011;59459;51.172;6.682;2022-10-31T06:01:04;14.77;;;6.40;;
71610;SDS011;59459;51.172;6.682;2022-10-31T06:03:30;16.35;;;7.40;;
71610;SDS011;59459;51.172;6.682;2022-10-31T06:05:55;16.10;;;6.20;;
71610;SDS011;59459;51.172;6.682;2022-10-31T06:08:21;18.03;;;6.93;;
71610;SDS011;59459;51.172;6.682;2022-10-31T06:10:46;18.03;;;7.03;;
71610;SDS011;59459;51.172;6.682;2022-10-31T06:13:11;18.23;;;6.30;;
71610;SDS011;59459;51.172;6.682;2022-10-31T06:15:36;16.33;;;6.93;;
71610;SDS011;59459;51.172;6.682;2022-10-31T06:18:02;17.53;;;7.17;;
71610;SDS011;59459;51.172;6.682;2022-10-31T06:20:28;15.93;;;7.15;;
71610;SDS011;59459;51.172;6.682;2022-10-31T06:22:54;16.10;;;7.03;;
71610;SDS011;59459;51.172;6.682;2022-10-31T06:25:19;14.60;;;6.83;;
71610;SDS011;59459;51.172;6.682;2022-10-31T06:27:44;18.87;;;7.60;;
71610;SDS011;59459;51.172;6.682;2022-10-31T06:30:09;18.43;;;7.33;;
71610;SDS011;59459;51.172;6.682;2022-10-31T06:32:35;14.90;;;7.27;;
71610;SDS011;59459;51.172;6.682;2022-10-31T06:35:00;15.23;;;7.10;;
71610;SDS011;59459;51.172;6.682;2022-10-31T06:37:25;14.47;;;7.03;;
71610;SDS011;59459;51.172;6.682;2022-10-31T06:39:50;17.83;;;6.53;;
71610;SDS011;59459;51.172;6.682;2022-10-31T06:42:16;18.03;;;7.10;;
71610;SDS011;59459;51.172;6.682;2022-10-31T06:44:41;15.10;;;6.97;;
71610;SDS011;59459;51.172;6.682;2022-10-31T06:47:06;16.87;;;6.93;;
71610;SDS011;59459;51.172;6.682;2022-10-31T06:49:31;16.87;;;7.23;;
71610;SDS011;59459;51.172;6.682;2022-10-31T06:51:57;14.87;;;6.77;;
71610;SDS011;59459;51.172;6.682;2022-10-31T06:54:22;17.03;;;7.73;;
71610;SDS011;59459;51.172;6.682;2022-10-31T06:56:48;16.90;;;7.23;;
71610;SDS011;59459;51.172;6.682;2022-10-31T06:59:13;17.77;;;7.05;;
71610;SDS011;59459;51.172;6.682;2022-10-31T07:01:38;18.23;;;6.60;;
71610;SDS011;59459;51.172;6.682;2022-10-31T07:04:04;15.57;;;7.23;;
71610;SDS011;59459;51.172;6.682;2022-10-31T07:06:29;16.90;;;6.93;;
71610;SDS011;59459;51.172;6.682;2022-10-31T07:08:54;16.07;;;7.47;;
71610;SDS011;59459;51.172;6.682;2022-10-31T07:11:19;14.03;;;6.70;;
71610;SDS011;59459;51.172;6.682;2022-10-31T07:13:45;18.53;;;7.80;;
71610;SDS011;59459;51.172;6.682;2022-10-31T07:16:10;14.07;;;7.07;;
71610;SDS011;59459;51.172;6.682;2022-10-31T07:18:37;15.07;;;7.33;;
71610;SDS011;59459;51.172;6.682;2022-10-31T07:21:03;17.13;;;7.27;;
71610;SDS011;59459;51.172;6.682;2022-10-31T07:23:28;16.58;;;7.25;;
71610;SDS011;59459;51.172;6.682;2022-10-31T07:25:56;21.43;;;7.40;;
71610;SDS011;59459;51.172;6.682;2022-10-31T07:28:22;21.20;;;8.13;;
71610;SDS011;59459;51.172;6.682;2022-10-31T07:30:51;15.75;;;7.90;;
71610;SDS011;59459;51.172;6.682;2022-10-31T07:33:16;18.50;;;7.50;;
71610;SDS011;59459;51.172;6.682;2022-10-31T07:35:42;15.30;;;7.60;;
71610;SDS011;59459;51.172;6.682;2022-10-31T07:38:08;16.67;;;7.27;;
71610;SDS011;59459;51.172;6.682;2022-10-31T07:40:34;15.85;;;7.78;;
71610;SDS011;59459;51.172;6.682;2022-10-31T07:42:59;17.17;;;7.33;;
71610;SDS011;59459;51.172;6.682;2022-10-31T07:45:24;17.93;;;7.57;;
71610;SDS011;59459;51.172;6.682;2022-10-31T07:47:53;16.57;;;8.50;;
71610;SDS011;59459;51.172;6.682;2022-10-31T07:50:19;19.23;;;7.95;;
71610;SDS011;59459;51.172;6.682;2022-10-31T07:52:45;18.80;;;7.47;;
71610;SDS011;59459;51.172;6.682;2022-10-31T07:55:10;15.90;;;7.70;;
71610;SDS011;59459;51.172;6.682;2022-10-31T07:57:36;18.67;;;8.57;;
71610;SDS011;59459;51.172;6.682;2022-10-31T08:00:05;18.03;;;8.00;;
71610;SDS011;59459;51.172;6.682;2022-10-31T08:02:30;17.48;;;8.35;;
71610;SDS011;59459;51.172;6.682;2022-10-31T08:04:56;17.27;;;8.20;;
71610;SDS011;59459;51.172;6.682;2022-10-31T08:07:21;17.07;;;8.10;;
71610;SDS011;59459;51.172;6.682;2022-10-31T08:09:46;18.07;;;8.70;;
71610;SDS011;59459;51.172;6.682;2022-10-31T08:12:11;17.20;;;8.10;;
71610;SDS011;59459;51.172;6.682;2022-10-31T08:14:36;19.40;;;8.50;;
71610;SDS011;59459;51.172;6.682;2022-10-31T08:17:02;18.80;;;9.10;;
71610;SDS011;59459;51.172;6.682;2022-10-31T08:19:27;19.73;;;8.47;;
71610;SDS011;59459;51.172;6.682;2022-10-31T08:21:52;16.93;;;8.13;;
71610;SDS011;59459;51.172;6.682;2022-10-31T08:24:20;23.08;;;9.02;;
71610;SDS011;59459;51.172;6.682;2022-10-31T08:26:45;16.30;;;8.03;;
71610;SDS011;59459;51.172;6.682;2022-10-31T08:29:10;17.10;;;7.93;;
71610;SDS011;59459;51.172;6.682;2022-10-31T08:31:35;19.37;;;8.70;;
71610;SDS011;59459;51.172;6.682;2022-10-31T08:34:00;17.07;;;8.10;;
71610;SDS011;59459;51.172;6.682;2022-10-31T08:36:26;16.87;;;8.37;;
71610;SDS011;59459;51.172;6.682;2022-10-31T08:38:51;18.20;;;8.40;;
71610;SDS011;59459;51.172;6.682;2022-10-31T08:41:17;14.90;;;8.20;;
71610;SDS011;59459;51.172;6.682;2022-10-31T08:43:42;16.40;;;8.50;;
71610;SDS011;59459;51.172;6.682;2022-10-31T08:46:07;18.00;;;7.87;;
71610;SDS011;59459;51.172;6.682;2022-10-31T08:48:32;16.13;;;8.60;;
71610;SDS011;59459;51.172;6.682;2022-10-31T08:50:58;19.27;;;9.53;;
71610;SDS011;59459;51.172;6.682;2022-10-31T08:53:24;16.83;;;8.40;;
71610;SDS011;59459;51.172;6.682;2022-10-31T08:55:49;17.75;;;8.88;;
71610;SDS011;59459;51.172;6.682;2022-10-31T08:58:15;15.90;;;7.97;;
71610;SDS011;59459;51.172;6.682;2022-10-31T09:00:41;19.07;;;8.30;;
71610;SDS011;59459;51.172;6.682;2022-10-31T09:03:09;18.52;;;7.80;;
71610;SDS011;59459;51.172;6.682;2022-10-31T09:05:35;17.35;;;8.02;;
71610;SDS011;59459;51.172;6.682;2022-10-31T09:08:02;19.70;;;8.30;;
71610;SDS011;59459;51.172;6.682;2022-10-31T09:10:28;23.95;;;8.38;;
71610;SDS011;59459;51.172;6.682;2022-10-31T09:15:22;19.58;;;8.38;;
71610;SDS011;59459;51.172;6.682;2022-10-31T09:17:47;17.40;;;8.37;;
71610;SDS011;59459;51.172;6.682;2022-10-31T09:20:13;15.88;;;7.72;;
71610;SDS011;59459;51.172;6.682;2022-10-31T09:22:38;20.33;;;9.10;;
71610;SDS011;59459;51.172;6.682;2022-10-31T09:25:03;15.73;;;7.90;;
71610;SDS011;59459;51.172;6.682;2022-10-31T09:27:29;23.47;;;8.57;;
71610;SDS011;59459;51.172;6.682;2022-10-31T09:29:54;19.10;;;9.13;;
71610;SDS011;59459;51.172;6.682;2022-10-31T09:32:19;17.73;;;7.97;;
71610;SDS011;59459;51.172;6.682;2022-10-31T09:34:44;19.43;;;8.67;;
71610;SDS011;59459;51.172;6.682;2022-10-31T09:37:09;20.47;;;8.77;;
71610;SDS011;59459;51.172;6.682;2022-10-31T09:39:35;18.50;;;8.47;;
71610;SDS011;59459;51.172;6.682;2022-10-31T09:47:23;19.05;;;8.20;;
71610;SDS011;59459;51.172;6.682;2022-10-31T09:50:01;15.63;;;7.97;;
71610;SDS011;59459;51.172;6.682;2022-10-31T09:52:31;15.88;;;8.88;;
71610;SDS011;59459;51.172;6.682;2022-10-31T09:55:03;17.17;;;8.15;;
71610;SDS011;59459;51.172;6.682;2022-10-31T09:57:32;21.93;;;8.37;;
71610;SDS011;59459;51.172;6.682;2022-10-31T09:59:58;16.35;;;7.85;;
71610;SDS011;59459;51.172;6.682;2022-10-31T10:02:27;16.83;;;8.05;;
71610;SDS011;59459;51.172;6.682;2022-10-31T10:05:00;16.77;;;7.50;;
71610;SDS011;59459;51.172;6.682;2022-10-31T10:09:58;16.00;;;6.93;;
71610;SDS011;59459;51.172;6.682;2022-10-31T10:15:16;18.80;;;7.47;;
71610;SDS011;59459;51.172;6.682;2022-10-31T10:17:49;16.43;;;7.00;;
71610;SDS011;59459;51.172;6.682;2022-10-31T10:30:44;20.10;;;8.33;;
71610;SDS011;59459;51.172;6.682;2022-10-31T10:32:50;18.45;;;8.80;;
71610;SDS011;59459;51.172;6.682;2022-10-31T10:37:49;19.17;;;7.90;;
71610;SDS011;59459;51.172;6.682;2022-10-31T10:40:20;18.38;;;8.57;;
71610;SDS011;59459;51.172;6.682;2022-10-31T10:42:53;19.03;;;8.57;;
71610;SDS011;59459;51.172;6.682;2022-10-31T10:45:39;21.52;;;7.90;;
71610;SDS011;59459;51.172;6.682;2022-10-31T10:48:30;18.35;;;8.45;;
71610;SDS011;59459;51.172;6.682;2022-10-31T10:50:59;18.08;;;7.82;;
71610;SDS011;59459;51.172;6.682;2022-10-31T10:58:41;32.03;;;8.88;;
71610;SDS011;59459;51.172;6.682;2022-10-31T11:01:14;21.10;;;8.10;;
71610;SDS011;59459;51.172;6.682;2022-10-31T11:03:40;19.92;;;8.18;;
71610;SDS011;59459;51.172;6.682;2022-10-31T11:06:15;16.70;;;7.90;;
71610;SDS011;59459;51.172;6.682;2022-10-31T11:08:41;15.90;;;7.80;;
71610;SDS011;59459;51.172;6.682;2022-10-31T11:13:32;17.95;;;7.88;;
71610;SDS011;59459;51.172;6.682;2022-10-31T11:18:30;15.10;;;6.97;;
71610;SDS011;59459;51.172;6.682;2022-10-31T11:20:56;14.77;;;7.03;;
71610;SDS011;59459;51.172;6.682;2022-10-31T11:23:23;21.83;;;7.63;;
71610;SDS011;59459;51.172;6.682;2022-10-31T11:25:49;17.10;;;7.28;;
71610;SDS011;59459;51.172;6.682;2022-10-31T11:28:15;18.07;;;7.03;;
71610;SDS011;59459;51.172;6.682;2022-10-31T11:30:48;12.68;;;6.75;;
71610;SDS011;59459;51.172;6.682;2022-10-31T11:33:16;14.57;;;6.67;;
71610;SDS011;59459;51.172;6.682;2022-10-31T11:35:41;15.38;;;6.90;;
71610;SDS011;59459;51.172;6.682;2022-10-31T11:38:07;13.30;;;6.30;;
71610;SDS011;59459;51.172;6.682;2022-10-31T11:40:32;13.43;;;5.97;;
71610;SDS011;59459;51.172;6.682;2022-10-31T11:42:57;16.90;;;7.00;;
71610;SDS011;59459;51.172;6.682;2022-10-31T11:47:49;17.87;;;6.00;;
71610;SDS011;59459;51.172;6.682;2022-10-31T11:50:19;12.27;;;5.47;;
71610;SDS011;59459;51.172;6.682;2022-10-31T11:52:45;15.95;;;5.80;;
71610;SDS011;59459;51.172;6.682;2022-10-31T12:00:55;11.77;;;4.80;;
71610;SDS011;59459;51.172;6.682;2022-10-31T12:03:10;11.50;;;5.00;;
71610;SDS011;59459;51.172;6.682;2022-10-31T12:05:37;13.40;;;5.10;;
71610;SDS011;59459;51.172;6.682;2022-10-31T12:08:03;11.38;;;5.05;;
71610;SDS011;59459;51.172;6.682;2022-10-31T12:10:35;12.27;;;5.13;;
71610;SDS011;59459;51.172;6.682;2022-10-31T12:15:42;14.32;;;5.05;;
71610;SDS011;59459;51.172;6.682;2022-10-31T12:31:10;14.48;;;4.32;;
71610;SDS011;59459;51.172;6.682;2022-10-31T12:33:52;11.50;;;4.32;;
71610;SDS011;59459;51.172;6.682;2022-10-31T12:36:41;11.23;;;4.22;;
71610;SDS011;59459;51.172;6.682;2022-10-31T12:49:24;10.95;;;3.90;;
71610;SDS011;59459;51.172;6.682;2022-10-31T12:59:43;12.63;;;3.85;;
71610;SDS011;59459;51.172;6.682;2022-10-31T13:04:40;12.13;;;4.53;;
71610;SDS011;59459;51.172;6.682;2022-10-31T13:07:15;11.02;;;3.80;;
71610;SDS011;59459;51.172;6.682;2022-10-31T13:09:42;11.53;;;4.50;;
71610;SDS011;59459;51.172;6.682;2022-10-31T13:12:11;11.65;;;4.68;;
71610;SDS011;59459;51.172;6.682;2022-10-31T13:14:51;12.15;;;4.68;;
71610;SDS011;59459;51.172;6.682;2022-10-31T13:17:39;15.45;;;4.63;;
71610;SDS011;59459;51.172;6.682;2022-10-31T13:22:38;10.27;;;4.53;;
71610;SDS011;59459;51.172;6.682;2022-10-31T13:27:48;11.77;;;4.45;;
71610;SDS011;59459;51.172;6.682;2022-10-31T13:30:19;13.55;;;4.35;;
71610;SDS011;59459;51.172;6.682;2022-10-31T13:32:59;14.43;;;4.57;;
71610;SDS011;59459;51.172;6.682;2022-10-31T13:38:08;11.50;;;4.13;;
71610;SDS011;59459;51.172;6.682;2022-10-31T13:40:40;11.38;;;3.95;;
71610;SDS011;59459;51.172;6.682;2022-10-31T13:45:51;10.55;;;4.03;;
71610;SDS011;59459;51.172;6.682;2022-10-31T13:48:18;11.73;;;4.07;;
71610;SDS011;59459;51.172;6.682;2022-10-31T13:50:57;12.98;;;4.28;;
71610;SDS011;59459;51.172;6.682;2022-10-31T13:53:34;10.57;;;3.72;;
71610;SDS011;59459;51.172;6.682;2022-10-31T13:58:29;12.70;;;4.15;;
71610;SDS011;59459;51.172;6.682;2022-10-31T14:03:35;12.13;;;3.85;;
71610;SDS011;59459;51.172;6.682;2022-10-31T14:06:01;8.93;;;3.65;;
71610;SDS011;59459;51.172;6.682;2022-10-31T14:08:27;10.70;;;3.93;;
71610;SDS011;59459;51.172;6.682;2022-10-31T14:10:53;12.05;;;4.00;;
71610;SDS011;59459;51.172;6.682;2022-10-31T14:18:42;11.83;;;3.77;;
71610;SDS011;59459;51.172;6.682;2022-10-31T14:23:41;13.80;;;4.18;;
71610;SDS011;59459;51.172;6.682;2022-10-31T14:28:45;12.55;;;4.07;;
71610;SDS011;59459;51.172;6.682;2022-10-31T14:31:25;9.13;;;3.23;;
71610;SDS011;59459;51.172;6.682;2022-10-31T14:33:52;11.65;;;3.78;;
71610;SDS011;59459;51.172;6.682;2022-10-31T14:36:18;10.37;;;3.50;;
71610;SDS011;59459;51.172;6.682;2022-10-31T14:38:56;11.65;;;3.95;;
71610;SDS011;59459;51.172;6.682;2022-10-31T14:41:25;11.95;;;3.83;;
71610;SDS011;59459;51.172;6.682;2022-10-31T14:46:45;13.00;;;3.77;;
71610;SDS011;59459;51.172;6.682;2022-10-31T14:51:55;13.18;;;3.60;;
71610;SDS011;59459;51.172;6.682;2022-10-31T14:54:34;11.53;;;3.43;;
71610;SDS011;59459;51.172;6.682;2022-10-31T14:57:05;8.30;;;3.53;;
71610;SDS011;59459;51.172;6.682;2022-10-31T14:59:31;13.73;;;3.80;;
71610;SDS011;59459;51.172;6.682;2022-10-31T15:02:02;12.40;;;3.67;;
71610;SDS011;59459;51.172;6.682;2022-10-31T15:04:34;10.25;;;3.70;;
71610;SDS011;59459;51.172;6.682;2022-10-31T15:09:32;9.52;;;3.08;;
71610;SDS011;59459;51.172;6.682;2022-10-31T15:12:16;9.05;;;3.35;;
71610;SDS011;59459;51.172;6.682;2022-10-31T15:14:46;11.40;;;3.70;;
71610;SDS011;59459;51.172;6.682;2022-10-31T15:17:11;9.90;;;3.10;;
71610;SDS011;59459;51.172;6.682;2022-10-31T15:19:36;8.80;;;3.30;;
71610;SDS011;59459;51.172;6.682;2022-10-31T15:22:02;9.00;;;3.23;;
71610;SDS011;59459;51.172;6.682;2022-10-31T15:24:30;10.75;;;3.30;;
71610;SDS011;59459;51.172;6.682;2022-10-31T15:26:57;11.17;;;3.97;;
71610;SDS011;59459;51.172;6.682;2022-10-31T15:29:23;11.98;;;3.53;;
71610;SDS011;59459;51.172;6.682;2022-10-31T15:31:50;14.07;;;3.45;;
71610;SDS011;59459;51.172;6.682;2022-10-31T15:34:16;10.25;;;3.47;;
71610;SDS011;59459;51.172;6.682;2022-10-31T15:36:47;8.40;;;3.13;;
71610;SDS011;59459;51.172;6.682;2022-10-31T15:39:12;11.85;;;3.75;;
71610;SDS011;59459;51.172;6.682;2022-10-31T15:41:50;10.60;;;3.50;;
71610;SDS011;59459;51.172;6.682;2022-10-31T15:44:18;10.27;;;3.60;;
71610;SDS011;59459;51.172;6.682;2022-10-31T15:46:51;10.63;;;3.53;;
71610;SDS011;59459;51.172;6.682;2022-10-31T15:51:54;15.13;;;3.97;;
71610;SDS011;59459;51.172;6.682;2022-10-31T15:54:19;11.50;;;3.83;;
71610;SDS011;59459;51.172;6.682;2022-10-31T15:56:44;9.63;;;3.20;;
71610;SDS011;59459;51.172;6.682;2022-10-31T15:59:27;8.20;;;3.07;;
71610;SDS011;59459;51.172;6.682;2022-10-31T16:02:00;10.30;;;3.00;;
71610;SDS011;59459;51.172;6.682;2022-10-31T16:04:26;14.02;;;3.25;;
71610;SDS011;59459;51.172;6.682;2022-10-31T16:09:35;12.87;;;3.53;;
71610;SDS011;59459;51.172;6.682;2022-10-31T16:12:00;8.60;;;3.17;;
71610;SDS011;59459;51.172;6.682;2022-10-31T16:14:27;9.85;;;3.50;;
71610;SDS011;59459;51.172;6.682;2022-10-31T16:16:53;11.17;;;3.80;;
71610;SDS011;59459;51.172;6.682;2022-10-31T16:19:21;10.35;;;3.47;;
71610;SDS011;59459;51.172;6.682;2022-10-31T16:21:47;10.73;;;3.28;;
71610;SDS011;59459;51.172;6.682;2022-10-31T16:24:18;10.35;;;3.10;;
71610;SDS011;59459;51.172;6.682;2022-10-31T16:26:48;12.80;;;3.22;;
71610;SDS011;59459;51.172;6.682;2022-10-31T16:29:27;9.33;;;3.17;;
71610;SDS011;59459;51.172;6.682;2022-10-31T16:31:53;7.93;;;3.17;;
71610;SDS011;59459;51.172;6.682;2022-10-31T16:34:20;10.77;;;3.40;;
71610;SDS011;59459;51.172;6.682;2022-10-31T16:36:45;9.07;;;3.13;;
71610;SDS011;59459;51.172;6.682;2022-10-31T16:39:11;9.77;;;3.50;;
71610;SDS011;59459;51.172;6.682;2022-10-31T16:41:39;10.88;;;3.30;;
71610;SDS011;59459;51.172;6.682;2022-10-31T16:44:06;10.88;;;3.58;;
71610;SDS011;59459;51.172;6.682;2022-10-31T16:46:37;11.05;;;2.88;;
71610;SDS011;59459;51.172;6.682;2022-10-31T16:49:03;12.80;;;3.40;;
71610;SDS011;59459;51.172;6.682;2022-10-31T16:51:28;11.33;;;3.20;;
71610;SDS011;59459;51.172;6.682;2022-10-31T16:53:53;7.73;;;3.37;;
71610;SDS011;59459;51.172;6.682;2022-10-31T16:56:32;7.78;;;3.00;;
71610;SDS011;59459;51.172;6.682;2022-10-31T16:58:58;10.67;;;3.27;;
71610;SDS011;59459;51.172;6.682;2022-10-31T17:01:24;9.88;;;3.35;;
71610;SDS011;59459;51.172;6.682;2022-10-31T17:03:49;11.85;;;4.20;;
71610;SDS011;59459;51.172;6.682;2022-10-31T17:06:15;9.87;;;3.33;;
71610;SDS011;59459;51.172;6.682;2022-10-31T17:08:40;12.40;;;3.83;;
71610;SDS011;59459;51.172;6.682;2022-10-31T17:11:05;14.90;;;5.27;;
71610;SDS011;59459;51.172;6.682;2022-10-31T17:13:33;13.45;;;6.70;;
71610;SDS011;59459;51.172;6.682;2022-10-31T17:15:59;12.20;;;5.27;;